Time;durP1;ratioP1;P1;durP2;ratioP2;P2;SDS_P1;SDS_P2;PMS_P1;PMS_P2;Temp;Humidity;BMP_temperature;BMP_pressure;BME280_temperature;BME280_humidity;BME280_pressure;Samples;Min_cycle;Max_cycle;Signal;HPM_P1;HPM_P2
2022/03/10 00:00:58;;;;;;;14.88;8.75;;;;;;;1.94;86.53;101785.25;5230321;28;20509;-76
2022/03/10 00:03:28;;;;;;;17.05;8.65;;;;;;;1.81;86.20;101791.03;5234825;28;20032;-76
2022/03/10 00:05:58;;;;;;;19.83;8.38;;;;;;;1.72;87.79;101793.41;5230243;28;20029;-76
2022/03/10 00:08:28;;;;;;;17.67;9.13;;;;;;;1.73;87.71;101804.63;5232982;28;20111;-76
2022/03/10 00:10:59;;;;;;;15.18;8.77;;;;;;;1.49;88.97;101798.94;5230132;28;20032;-76
2022/03/10 00:13:30;;;;;;;18.42;8.95;;;;;;;1.62;88.47;101806.97;5233069;28;20038;-76
2022/03/10 00:16:00;;;;;;;16.92;8.32;;;;;;;1.70;89.65;101810.56;5230097;28;20027;-76
2022/03/10 00:18:30;;;;;;;16.30;8.75;;;;;;;1.70;89.08;101818.28;5232590;28;20425;-76
2022/03/10 00:21:01;;;;;;;16.08;8.68;;;;;;;1.66;88.94;101810.47;5229880;28;20021;-76
2022/03/10 00:23:31;;;;;;;16.85;9.25;;;;;;;1.40;90.00;101814.22;5232451;28;20032;-76
2022/03/10 00:26:01;;;;;;;16.70;9.10;;;;;;;1.25;91.72;101819.91;5229756;28;20032;-76
2022/03/10 00:28:33;;;;;;;21.02;9.48;;;;;;;1.42;90.71;101815.97;5232545;28;20253;-76
2022/03/10 00:31:03;;;;;;;16.77;9.48;;;;;;;1.29;92.03;101821.72;5230177;28;20017;-76
2022/03/10 00:33:34;;;;;;;18.33;9.50;;;;;;;1.28;92.35;101817.44;5233514;28;20032;-76
2022/03/10 00:36:06;;;;;;;16.50;9.20;;;;;;;1.34;91.53;101825.25;5229914;28;20116;-76
2022/03/10 00:38:36;;;;;;;17.80;9.23;;;;;;;1.54;90.22;101833.41;5232244;28;20033;-76
2022/03/10 00:41:07;;;;;;;17.58;10.15;;;;;;;1.49;89.87;101828.16;5230773;28;20047;-76
2022/03/10 00:43:37;;;;;;;15.30;8.60;;;;;;;1.49;90.14;101825.59;5231510;28;20024;-76
2022/03/10 00:46:07;;;;;;;16.10;9.32;;;;;;;1.47;89.63;101827.28;5230660;28;20543;-76
2022/03/10 00:48:38;;;;;;;17.20;9.35;;;;;;;1.36;90.66;101833.88;5230459;28;20033;-76
2022/03/10 00:51:08;;;;;;;17.73;8.93;;;;;;;1.16;91.18;101845.47;5233619;28;20020;-76
2022/03/10 00:53:39;;;;;;;16.40;9.40;;;;;;;1.03;92.60;101845.16;5235314;28;20099;-76
2022/03/10 00:56:09;;;;;;;17.00;9.82;;;;;;;0.98;92.90;101850.19;5235226;28;20075;-76
2022/03/10 00:58:39;;;;;;;17.77;9.48;;;;;;;0.88;93.09;101844.81;5235672;28;20024;-76
2022/03/10 01:01:10;;;;;;;19.38;9.30;;;;;;;0.92;94.23;101842.31;5232963;28;20070;-76
2022/03/10 01:03:40;;;;;;;18.70;9.65;;;;;;;0.91;93.98;101845.72;5236620;28;20028;-76
2022/03/10 01:06:11;;;;;;;21.17;10.15;;;;;;;0.93;94.02;101846.63;5234855;28;20035;-76
2022/03/10 01:08:42;;;;;;;20.05;10.77;;;;;;;0.97;93.46;101838.16;5235834;28;20207;-76
2022/03/10 01:11:12;;;;;;;19.08;9.77;;;;;;;1.08;92.95;101844.41;5235384;28;20017;-76
2022/03/10 01:13:42;;;;;;;16.48;9.10;;;;;;;1.18;92.15;101841.22;5231342;28;20033;-76
2022/03/10 01:16:13;;;;;;;18.80;10.07;;;;;;;1.26;90.79;101847.38;5232523;28;20040;-76
2022/03/10 01:18:52;;;;;;;16.08;9.48;;;;;;;1.35;89.57;101841.56;5234846;28;20389;-76
2022/03/10 01:21:22;;;;;;;18.33;9.13;;;;;;;1.35;88.79;101841.56;5231397;28;20453;-76
2022/03/10 01:23:53;;;;;;;17.15;9.15;;;;;;;1.37;89.03;101845.94;5237239;28;20095;-76
2022/03/10 01:26:24;;;;;;;15.98;9.30;;;;;;;1.34;88.69;101845.88;5233303;28;20017;-76
2022/03/10 01:28:54;;;;;;;16.02;9.20;;;;;;;1.35;89.16;101845.03;5234946;28;20500;-76
2022/03/10 01:31:24;;;;;;;18.73;9.55;;;;;;;1.33;88.34;101844.13;5232389;28;20024;-76
2022/03/10 01:33:55;;;;;;;15.93;9.50;;;;;;;1.22;88.69;101845.59;5235487;28;20383;-76
2022/03/10 01:36:25;;;;;;;17.00;9.32;;;;;;;1.35;88.42;101846.72;5236032;28;20491;-76
2022/03/10 01:38:56;;;;;;;19.40;9.40;;;;;;;1.40;87.33;101845.97;5233085;28;20112;-76
2022/03/10 01:41:26;;;;;;;16.48;9.43;;;;;;;1.33;87.12;101836.41;5235628;28;20497;-76
2022/03/10 01:43:58;;;;;;;16.92;8.93;;;;;;;1.48;85.88;101841.88;5231917;28;20064;-76
2022/03/10 01:46:29;;;;;;;17.83;9.57;;;;;;;1.28;86.02;101845.75;5235438;28;20036;-76
2022/03/10 01:49:00;;;;;;;16.20;9.30;;;;;;;1.15;87.61;101840.25;5231150;28;20391;-77
2022/03/10 01:51:31;;;;;;;20.90;8.88;;;;;;;1.05;88.50;101844.34;5235459;28;20040;-76
2022/03/10 01:54:03;;;;;;;18.58;9.07;;;;;;;1.03;89.13;101848.59;5232629;28;20059;-76
2022/03/10 01:56:34;;;;;;;19.08;8.98;;;;;;;1.03;89.03;101847.72;5234586;28;20375;-76
2022/03/10 01:59:05;;;;;;;19.00;8.63;;;;;;;1.05;89.11;101846.06;5233013;28;20418;-76
2022/03/10 02:01:36;;;;;;;17.08;9.00;;;;;;;1.11;88.98;101841.94;5233534;28;20040;-76
2022/03/10 02:04:06;;;;;;;16.02;9.10;;;;;;;1.08;88.08;101846.13;5234653;28;20312;-76
2022/03/10 02:06:37;;;;;;;15.40;9.05;;;;;;;1.09;87.94;101838.41;5233747;28;20163;-76
2022/03/10 02:11:56;;;;;;;17.27;9.38;;;;;;;1.08;89.40;101836.69;5232150;28;20076;-76
2022/03/10 02:17:21;;;;;;;16.00;9.25;;;;;;;0.94;90.15;101838.09;5234336;28;20035;-76
2022/03/10 02:19:53;;;;;;;15.82;8.93;;;;;;;0.96;90.28;101831.28;5231597;28;20390;-76
2022/03/10 02:22:25;;;;;;;21.00;9.63;;;;;;;1.03;89.81;101827.16;5234949;28;20067;-76
2022/03/10 02:24:56;;;;;;;16.35;9.25;;;;;;;0.99;89.92;101826.19;5231387;28;20021;-76
2022/03/10 02:27:27;;;;;;;17.40;9.15;;;;;;;1.21;89.43;101827.56;5235594;28;20333;-76
2022/03/10 02:29:59;;;;;;;16.42;9.30;;;;;;;1.37;88.11;101830.47;5231388;28;20035;-76
2022/03/10 02:35:14;;;;;;;16.85;8.80;;;;;;;1.14;87.64;101831.69;5279350;28;20130;-76
2022/03/10 02:37:45;;;;;;;16.00;9.02;;;;;;;0.99;88.41;101823.63;5282856;28;20056;-76
2022/03/10 02:40:15;;;;;;;17.40;8.75;;;;;;;1.02;88.49;101820.22;5281764;28;20027;-75
2022/03/10 02:42:45;;;;;;;15.05;8.32;;;;;;;0.97;89.02;101825.31;5287275;28;20475;-77
2022/03/10 02:45:16;;;;;;;17.48;9.32;;;;;;;0.75;90.41;101817.91;5283103;28;20024;-77
2022/03/10 02:47:46;;;;;;;17.45;9.00;;;;;;;0.62;90.66;101826.19;5279461;28;20131;-76
2022/03/10 02:50:17;;;;;;;14.13;8.35;;;;;;;0.54;92.15;101826.81;5261178;28;20100;-74
2022/03/10 02:52:47;;;;;;;18.90;9.05;;;;;;;0.43;93.53;101824.00;5278050;28;20141;-78
2022/03/10 02:55:17;;;;;;;19.08;8.57;;;;;;;0.38;94.37;101820.41;5279287;28;20023;-75
2022/03/10 02:57:48;;;;;;;19.50;9.15;;;;;;;0.40;95.36;101825.59;5277543;28;20036;-76
2022/03/10 03:00:19;;;;;;;20.13;9.80;;;;;;;0.43;96.32;101829.13;5261057;28;20465;-77
2022/03/10 03:02:49;;;;;;;19.20;9.75;;;;;;;0.41;96.44;101825.63;5272572;28;20027;-77
2022/03/10 03:05:20;;;;;;;18.75;10.48;;;;;;;0.47;96.14;101828.38;5266955;28;20028;-75
2022/03/10 03:07:51;;;;;;;19.73;9.25;;;;;;;0.59;95.59;101823.50;5275059;28;20024;-74
2022/03/10 03:10:21;;;;;;;17.00;9.57;;;;;;;0.70;94.55;101827.22;5275789;28;20027;-76
2022/03/10 03:12:51;;;;;;;18.35;9.02;;;;;;;0.84;93.67;101831.00;5278605;28;20027;-77
2022/03/10 03:15:22;;;;;;;19.40;8.85;;;;;;;0.90;92.94;101825.13;5275879;28;20162;-76
2022/03/10 03:17:52;;;;;;;19.08;9.38;;;;;;;1.04;91.80;101828.88;5279549;28;20027;-75
2022/03/10 03:20:22;;;;;;;14.63;8.90;;;;;;;0.96;91.46;101831.28;5274753;28;20055;-76
2022/03/10 03:22:53;;;;;;;14.00;7.85;;;;;;;1.07;90.80;101839.25;5279122;28;20035;-76
2022/03/10 03:25:23;;;;;;;16.27;9.18;;;;;;;1.07;91.22;101834.94;5275477;28;20034;-75
2022/03/10 03:27:53;;;;;;;15.48;8.95;;;;;;;1.01;90.63;101829.66;5278099;28;20050;-77
2022/03/10 03:30:23;;;;;;;17.65;8.55;;;;;;;1.02;90.63;101825.38;5275607;28;20023;-77
2022/03/10 03:32:54;;;;;;;19.08;9.15;;;;;;;0.99;90.92;101826.19;5275036;28;20030;-77
2022/03/10 03:35:25;;;;;;;15.52;8.65;;;;;;;1.06;90.03;101827.22;5266490;28;20032;-77
2022/03/10 03:37:55;;;;;;;19.45;9.25;;;;;;;1.17;90.41;101826.59;5272534;28;20031;-77
2022/03/10 03:40:25;;;;;;;12.32;8.15;;;;;;;1.13;90.03;101839.38;5272282;28;20028;-77
2022/03/10 03:42:56;;;;;;;15.80;8.55;;;;;;;1.13;90.24;101845.41;5279405;28;20024;-77
2022/03/10 03:45:27;;;;;;;17.05;8.63;;;;;;;1.10;89.57;101840.16;5275227;28;20055;-76
2022/03/10 03:47:58;;;;;;;16.48;8.77;;;;;;;1.11;89.58;101836.78;5278285;28;20408;-77
2022/03/10 03:50:28;;;;;;;17.73;8.52;;;;;;;1.09;89.78;101835.00;5275012;28;20028;-76
2022/03/10 03:52:58;;;;;;;18.10;8.88;;;;;;;1.09;89.81;101840.13;5277620;28;20016;-76
2022/03/10 03:55:29;;;;;;;15.43;8.30;;;;;;;1.10;89.91;101842.72;5273998;28;20036;-76
2022/03/10 03:57:59;;;;;;;17.30;8.93;;;;;;;0.90;90.77;101848.28;5277740;28;20022;-77
2022/03/10 04:00:30;;;;;;;15.23;8.65;;;;;;;0.83;91.68;101854.09;5272263;28;20444;-76
2022/03/10 04:03:06;;;;;;;15.93;9.02;;;;;;;0.69;92.60;101850.34;5254823;28;20103;-76
2022/03/10 04:05:38;;;;;;;17.02;8.98;;;;;;;0.56;93.10;101858.59;5276508;28;20084;-77
2022/03/10 04:08:08;;;;;;;18.00;10.07;;;;;;;0.55;93.93;101855.13;5272716;28;20481;-76
2022/03/10 04:10:39;;;;;;;19.60;9.82;;;;;;;0.60;93.66;101856.13;5265824;28;20068;-77
2022/03/10 04:13:09;;;;;;;20.73;9.95;;;;;;;0.59;94.45;101862.06;5274896;28;20036;-78
2022/03/10 04:15:40;;;;;;;17.80;10.25;;;;;;;0.56;94.37;101856.88;5275461;28;20440;-74
2022/03/10 04:18:10;;;;;;;16.90;10.30;;;;;;;0.65;93.94;101864.81;5274609;28;20625;-74
2022/03/10 04:20:40;;;;;;;18.10;9.80;;;;;;;0.62;94.12;101858.72;5274967;28;20034;-75
2022/03/10 04:23:12;;;;;;;18.73;10.05;;;;;;;0.59;94.53;101862.06;5273743;28;20155;-74
2022/03/10 04:25:42;;;;;;;20.38;10.10;;;;;;;0.61;94.66;101868.16;5274879;28;20063;-75
2022/03/10 04:28:13;;;;;;;20.67;10.13;;;;;;;0.58;95.68;101870.63;5274235;28;20062;-75
2022/03/10 04:30:44;;;;;;;20.23;10.52;;;;;;;0.53;95.68;101871.38;5275406;28;20024;-76
2022/03/10 04:33:15;;;;;;;21.95;9.90;;;;;;;0.46;95.58;101872.91;5275692;28;20469;-77
2022/03/10 04:35:45;;;;;;;20.00;10.95;;;;;;;0.56;95.55;101877.44;5274759;28;20028;-75
2022/03/10 04:38:15;;;;;;;20.30;10.25;;;;;;;0.61;95.82;101872.41;5272420;28;20020;-75
2022/03/10 04:40:46;;;;;;;23.45;10.23;;;;;;;0.58;95.87;101870.63;5263674;28;20477;-77
2022/03/10 04:43:17;;;;;;;20.20;10.68;;;;;;;0.48;95.65;101871.25;5275547;28;20057;-77
2022/03/10 04:45:47;;;;;;;19.80;10.23;;;;;;;0.48;95.85;101876.38;5273292;28;20034;-78
2022/03/10 04:48:17;;;;;;;19.60;10.10;;;;;;;0.38;96.34;101883.81;5273426;28;20112;-74
2022/03/10 04:50:47;;;;;;;21.98;10.45;;;;;;;0.42;96.15;101881.34;5273341;28;20157;-77
2022/03/10 04:53:18;;;;;;;21.02;11.18;;;;;;;0.49;95.93;101872.97;5275437;28;20564;-77
2022/03/10 04:55:48;;;;;;;19.33;10.80;;;;;;;0.55;95.20;101880.84;5272453;28;20103;-77
2022/03/10 04:58:18;;;;;;;21.65;10.20;;;;;;;0.55;95.48;101885.97;5275027;28;20031;-78
2022/03/10 05:00:49;;;;;;;17.48;10.07;;;;;;;0.52;95.78;101885.91;5272091;28;20633;-74
2022/03/10 05:03:19;;;;;;;22.45;10.35;;;;;;;0.60;94.70;101892.13;5274930;28;20036;-76
2022/03/10 05:05:49;;;;;;;21.08;10.80;;;;;;;0.64;94.06;101893.06;5273517;28;20032;-76
2022/03/10 05:08:19;;;;;;;22.48;11.00;;;;;;;0.48;93.69;101891.81;5272605;28;20051;-76
2022/03/10 05:10:50;;;;;;;20.20;10.50;;;;;;;0.42;94.64;101894.22;5245730;28;20020;-76
2022/03/10 05:13:20;;;;;;;21.65;10.45;;;;;;;0.42;95.24;101893.34;5275295;28;20031;-75
2022/03/10 05:15:50;;;;;;;23.30;10.70;;;;;;;0.29;95.07;101897.31;5273938;28;20024;-76
2022/03/10 05:18:21;;;;;;;18.80;10.27;;;;;;;0.31;96.55;101898.22;5276880;28;20334;-77
2022/03/10 05:20:51;;;;;;;19.77;10.00;;;;;;;0.23;96.62;101902.25;5255456;28;20020;-75
2022/03/10 05:23:21;;;;;;;20.98;10.73;;;;;;;0.16;97.82;101897.81;5276009;28;20250;-77
2022/03/10 05:25:51;;;;;;;25.65;10.13;;;;;;;0.11;97.66;101904.53;5272647;28;20024;-77
2022/03/10 05:28:22;;;;;;;20.48;10.50;;;;;;;0.18;98.13;101909.00;5275387;28;20103;-77
2022/03/10 05:30:52;;;;;;;19.02;9.95;;;;;;;0.11;98.66;101913.91;5271759;28;20035;-76
2022/03/10 05:33:22;;;;;;;19.25;10.43;;;;;;;0.12;99.10;101906.25;5274783;28;20020;-77
2022/03/10 05:35:52;;;;;;;22.83;9.63;;;;;;;0.10;99.48;101914.75;5274907;28;20091;-78
2022/03/10 05:38:23;;;;;;;20.63;9.95;;;;;;;0.12;99.36;101911.41;5275488;28;20036;-75
2022/03/10 05:40:53;;;;;;;17.27;9.60;;;;;;;0.16;99.56;101908.09;5267230;28;20085;-76
2022/03/10 05:43:24;;;;;;;21.33;9.38;;;;;;;0.16;98.89;101907.19;5279381;28;20027;-76
2022/03/10 05:45:54;;;;;;;20.27;9.88;;;;;;;0.19;99.19;101905.59;5275603;28;20035;-76
2022/03/10 05:48:24;;;;;;;20.33;10.85;;;;;;;0.35;99.26;101909.47;5275658;28;20032;-76
2022/03/10 05:50:54;;;;;;;18.38;9.98;;;;;;;0.30;99.38;101906.75;5279336;28;20354;-77
2022/03/10 05:53:25;;;;;;;22.60;10.25;;;;;;;0.23;99.91;101920.25;5275221;28;20024;-77
2022/03/10 05:55:55;;;;;;;19.80;10.65;;;;;;;0.16;100.00;101923.50;5279179;28;20415;-76
2022/03/10 05:58:25;;;;;;;20.88;10.15;;;;;;;0.08;100.00;101927.53;5274843;28;20434;-75
2022/03/10 06:00:56;;;;;;;19.67;9.63;;;;;;;0.10;100.00;101923.34;5277539;28;20032;-76
2022/03/10 06:03:26;;;;;;;19.20;10.55;;;;;;;0.23;100.00;101927.97;5278369;28;20069;-77
2022/03/10 06:05:56;;;;;;;20.65;9.95;;;;;;;0.37;99.91;101921.50;5252259;28;20477;-77
2022/03/10 06:08:26;;;;;;;18.25;10.32;;;;;;;0.43;99.30;101928.50;5274566;28;20385;-77
2022/03/10 06:10:57;;;;;;;19.40;10.05;;;;;;;0.54;98.92;101925.38;5266135;28;20236;-77
2022/03/10 06:13:27;;;;;;;17.98;9.93;;;;;;;0.60;98.77;101932.41;5278148;28;20195;-77
2022/03/10 06:15:57;;;;;;;21.98;9.55;;;;;;;0.60;98.61;101930.72;5256626;28;20027;-76
2022/03/10 06:18:28;;;;;;;20.20;10.25;;;;;;;0.75;98.24;101933.66;5283289;28;20544;-77
2022/03/10 06:20:58;;;;;;;19.83;10.20;;;;;;;0.73;98.58;101935.31;5280819;28;20483;-76
2022/03/10 06:23:28;;;;;;;19.85;9.40;;;;;;;0.93;98.35;101946.97;5281702;28;20023;-76
2022/03/10 06:25:59;;;;;;;20.40;10.70;;;;;;;0.89;98.04;101932.31;5276607;28;20027;-76
2022/03/10 06:28:30;;;;;;;18.40;9.75;;;;;;;1.08;98.24;101929.34;5277787;28;20035;-77
2022/03/10 06:31:00;;;;;;;19.17;9.13;;;;;;;1.12;97.74;101931.19;5281772;28;20019;-77
2022/03/10 06:33:30;;;;;;;18.45;9.52;;;;;;;1.23;97.97;101940.00;5279393;28;20036;-76
2022/03/10 06:36:01;;;;;;;18.60;9.25;;;;;;;1.41;97.04;101937.84;5260210;28;20573;-75
2022/03/10 06:38:32;;;;;;;23.83;10.15;;;;;;;1.49;97.00;101941.50;5277004;28;20110;-77
2022/03/10 06:41:03;;;;;;;17.50;9.20;;;;;;;1.53;97.45;101939.84;5269602;28;20039;-75
2022/03/10 06:43:34;;;;;;;17.80;9.73;;;;;;;1.64;97.76;101939.25;5284871;28;20031;-75
2022/03/10 06:46:04;;;;;;;20.33;9.30;;;;;;;1.75;96.84;101939.50;5264493;28;20167;-75
2022/03/10 06:48:34;;;;;;;21.15;9.70;;;;;;;1.91;95.82;101945.00;5279853;28;20284;-75
2022/03/10 06:51:05;;;;;;;18.73;9.73;;;;;;;1.93;95.76;101940.72;5283716;28;20515;-75
2022/03/10 06:53:35;;;;;;;17.40;9.20;;;;;;;2.08;95.39;101948.78;5277679;28;20038;-77
2022/03/10 06:56:05;;;;;;;21.95;10.20;;;;;;;2.19;95.84;101948.16;5281077;28;20019;-77
2022/03/10 06:58:36;;;;;;;18.67;9.77;;;;;;;2.32;95.94;101950.16;5279189;28;20027;-76
2022/03/10 07:01:06;;;;;;;17.63;9.38;;;;;;;2.30;96.99;101958.72;5281341;28;20080;-76
2022/03/10 07:03:36;;;;;;;17.55;9.98;;;;;;;2.44;96.82;101949.50;5282241;28;20460;-78
2022/03/10 07:06:07;;;;;;;20.48;9.50;;;;;;;2.60;94.34;101948.94;5280021;28;20020;-77
2022/03/10 07:08:37;;;;;;;18.13;9.63;;;;;;;2.72;94.77;101956.94;5277451;28;20249;-77
2022/03/10 07:11:07;;;;;;;19.80;9.40;;;;;;;2.81;94.16;101946.75;5271653;28;20095;-76
2022/03/10 07:13:37;;;;;;;16.02;9.18;;;;;;;2.99;93.40;101958.28;5281000;28;20099;-75
2022/03/10 07:16:09;;;;;;;18.00;9.02;;;;;;;3.02;94.59;101944.56;5280336;28;20026;-74
2022/03/10 07:18:39;;;;;;;20.65;9.93;;;;;;;3.32;93.97;101942.44;5280717;28;20059;-75
2022/03/10 07:21:09;;;;;;;16.10;8.85;;;;;;;3.48;93.07;101944.41;5279021;28;20051;-77
2022/03/10 07:23:39;;;;;;;15.38;8.35;;;;;;;3.83;89.25;101941.50;5279223;28;20043;-77
2022/03/10 07:26:10;;;;;;;17.67;8.68;;;;;;;3.95;88.74;101945.09;5277466;28;20035;-77
2022/03/10 07:28:41;;;;;;;16.77;8.52;;;;;;;4.17;86.52;101952.31;5277325;28;20514;-75
2022/03/10 07:31:11;;;;;;;17.20;8.55;;;;;;;4.67;86.06;101945.94;5275808;28;20031;-76
2022/03/10 07:33:42;;;;;;;15.32;8.38;;;;;;;6.85;77.48;101940.31;5278590;28;20095;-76
2022/03/10 07:36:13;;;;;;;18.75;8.52;;;;;;;9.37;68.66;101933.31;5278630;28;20535;-76
2022/03/10 07:38:43;;;;;;;15.05;8.27;;;;;;;11.10;63.81;101918.03;5274210;28;20032;-75
2022/03/10 07:41:13;;;;;;;11.77;6.70;;;;;;;11.54;61.74;101931.22;5279809;28;20050;-76
2022/03/10 07:43:44;;;;;;;11.65;6.88;;;;;;;12.73;59.36;101934.03;5282142;28;20495;-76
2022/03/10 07:46:14;;;;;;;11.20;6.30;;;;;;;13.65;56.81;101933.50;5280996;28;20087;-77
2022/03/10 07:48:44;;;;;;;13.38;6.95;;;;;;;13.09;56.96;101936.72;5281649;28;20481;-76
2022/03/10 07:51:14;;;;;;;11.13;6.67;;;;;;;13.66;57.22;101943.13;5282774;28;20043;-77
2022/03/10 07:53:45;;;;;;;13.17;6.83;;;;;;;13.93;55.33;101939.75;5282949;28;20281;-76
2022/03/10 07:56:15;;;;;;;13.10;6.93;;;;;;;15.32;53.64;101932.88;5283662;28;20358;-77
2022/03/10 07:58:46;;;;;;;13.63;7.45;;;;;;;14.25;54.17;101940.59;5280371;28;20035;-77
2022/03/10 08:01:17;;;;;;;11.88;6.75;;;;;;;14.36;54.12;101935.91;5270635;28;20092;-76
2022/03/10 08:03:47;;;;;;;11.95;7.15;;;;;;;14.69;53.77;101926.13;5277390;28;20571;-75
2022/03/10 08:06:17;;;;;;;12.20;6.93;;;;;;;13.82;54.16;101926.91;5280622;28;20016;-77
2022/03/10 08:08:47;;;;;;;12.87;7.00;;;;;;;14.07;54.91;101935.00;5279072;28;20277;-77
2022/03/10 08:11:18;;;;;;;12.20;6.80;;;;;;;14.17;54.11;101928.56;5279986;28;20281;-76
2022/03/10 08:13:48;;;;;;;10.80;6.80;;;;;;;14.53;54.63;101922.22;5282700;28;20273;-77
2022/03/10 08:16:18;;;;;;;13.52;7.00;;;;;;;14.07;54.57;101927.94;5279496;28;20027;-75
2022/03/10 08:18:49;;;;;;;12.27;6.82;;;;;;;14.25;54.56;101932.72;5280640;28;20103;-76
2022/03/10 08:21:19;;;;;;;11.60;7.22;;;;;;;15.40;53.52;101920.28;5283007;28;20026;-75
2022/03/10 08:23:50;;;;;;;12.83;7.10;;;;;;;15.33;53.57;101918.78;5281059;28;20600;-76
2022/03/10 08:26:20;;;;;;;10.77;6.10;;;;;;;15.33;52.30;101922.28;5282895;28;20277;-75
2022/03/10 08:28:52;;;;;;;10.05;6.65;;;;;;;15.26;52.52;101920.75;5278903;28;20039;-76
2022/03/10 08:31:23;;;;;;;11.68;6.75;;;;;;;14.94;53.59;101928.81;5270528;28;20034;-75
2022/03/10 08:33:54;;;;;;;10.85;6.40;;;;;;;15.43;53.13;101907.00;5293348;22;20460;-78
2022/03/10 08:36:24;;;;;;;12.48;6.78;;;;;;;15.39;52.21;101919.41;5273510;28;20476;-78
2022/03/10 08:38:54;;;;;;;11.95;6.55;;;;;;;14.66;52.79;101920.97;5273462;28;20028;-78
2022/03/10 08:41:25;;;;;;;10.93;6.78;;;;;;;14.81;52.39;101918.72;5266987;28;20173;-79
2022/03/10 08:43:55;;;;;;;12.43;6.57;;;;;;;15.08;52.51;101916.06;5271137;28;20435;-79
2022/03/10 08:46:26;;;;;;;13.73;6.13;;;;;;;14.94;52.58;101917.41;5274095;28;20341;-79
2022/03/10 08:48:59;;;;;;;10.85;6.35;;;;;;;15.33;52.60;101913.53;5271079;28;20031;-79
2022/03/10 08:51:29;;;;;;;11.82;6.50;;;;;;;15.13;52.38;101911.50;5267708;28;20073;-79
2022/03/10 08:53:59;;;;;;;10.73;6.70;;;;;;;14.82;52.33;101912.56;5274710;28;20102;-79
2022/03/10 08:56:30;;;;;;;9.70;6.50;;;;;;;15.12;52.51;101909.78;5271116;28;20451;-79
2022/03/10 08:59:00;;;;;;;10.93;6.45;;;;;;;15.58;51.05;101912.63;5256829;28;20110;-79
2022/03/10 09:01:31;;;;;;;10.60;6.60;;;;;;;15.23;50.90;101907.69;5271523;28;20595;-78
2022/03/10 09:04:02;;;;;;;10.10;6.30;;;;;;;15.13;51.83;101906.25;5274418;28;20057;-78
2022/03/10 09:06:32;;;;;;;10.50;6.32;;;;;;;15.61;52.08;101904.63;5271974;28;20480;-78
2022/03/10 09:09:05;;;;;;;10.50;6.05;;;;;;;14.99;51.88;101908.47;5268132;28;20020;-78
2022/03/10 09:11:36;;;;;;;12.77;6.10;;;;;;;15.56;51.65;101906.53;5271898;28;20027;-78
2022/03/10 09:14:09;;;;;;;10.50;6.03;;;;;;;15.49;51.94;101897.13;5276038;28;20020;-79
2022/03/10 09:16:39;;;;;;;12.13;6.13;;;;;;;14.29;51.55;101907.19;5272598;28;20049;-78
2022/03/10 09:19:10;;;;;;;8.52;5.40;;;;;;;13.94;52.22;101909.94;5271225;28;20099;-78
2022/03/10 09:21:41;;;;;;;11.77;5.75;;;;;;;12.39;54.42;101918.19;5269023;28;20028;-78
2022/03/10 09:24:14;;;;;;;9.73;5.68;;;;;;;11.85;57.16;101916.72;5271158;28;20040;-78
2022/03/10 09:26:44;;;;;;;10.05;6.10;;;;;;;11.75;57.00;101924.78;5277496;28;20020;-78
2022/03/10 09:29:15;;;;;;;9.48;5.43;;;;;;;11.58;57.20;101925.06;5258325;28;20558;-78
2022/03/10 09:31:48;;;;;;;11.20;6.43;;;;;;;11.34;58.25;101927.22;5277489;28;20035;-78
2022/03/10 09:34:19;;;;;;;9.57;5.75;;;;;;;11.19;57.95;101923.13;5275583;28;20028;-78
2022/03/10 09:36:49;;;;;;;11.73;5.72;;;;;;;10.88;59.00;101917.53;5277939;28;20079;-78
2022/03/10 09:39:23;;;;;;;11.30;5.63;;;;;;;11.31;59.80;101909.81;5266729;28;20065;-78
2022/03/10 09:41:56;;;;;;;9.98;5.55;;;;;;;11.18;58.55;101905.69;5274730;28;20024;-78
2022/03/10 09:44:27;;;;;;;11.52;6.03;;;;;;;11.43;59.52;101912.22;5270055;28;20024;-78
2022/03/10 09:47:03;;;;;;;13.15;5.90;;;;;;;11.31;59.36;101906.34;5276142;28;20027;-78
2022/03/10 09:49:36;;;;;;;12.18;5.80;;;;;;;11.04;58.30;101904.16;5259969;28;20032;-78
2022/03/10 09:52:08;;;;;;;11.15;5.53;;;;;;;10.93;57.88;101913.09;5275625;28;20024;-77
2022/03/10 09:54:38;;;;;;;10.30;5.40;;;;;;;11.15;58.63;101915.34;5275040;28;20058;-77
2022/03/10 09:57:09;;;;;;;9.20;5.22;;;;;;;10.87;58.09;101921.03;5275486;28;20076;-77
2022/03/10 09:59:50;;;;;;;8.50;4.97;;;;;;;10.88;58.44;101912.31;5276634;28;20052;-77
2022/03/10 10:02:21;;;;;;;11.68;5.40;;;;;;;10.54;56.24;101930.22;5271183;28;20035;-77
2022/03/10 10:04:51;;;;;;;9.43;5.25;;;;;;;10.50;57.68;101925.06;5277755;28;20028;-77
2022/03/10 10:07:26;;;;;;;9.63;5.50;;;;;;;10.76;57.46;101917.72;5273575;28;20673;-77
2022/03/10 10:09:57;;;;;;;13.88;5.78;;;;;;;10.70;58.07;101926.50;5264334;28;20049;-77
2022/03/10 10:12:29;;;;;;;10.95;5.50;;;;;;;10.75;58.34;101918.59;5273896;28;20088;-77
2022/03/10 10:15:00;;;;;;;14.20;5.82;;;;;;;10.78;56.54;101910.69;5277792;28;20035;-77
2022/03/10 10:17:32;;;;;;;10.88;5.32;;;;;;;10.55;57.83;101910.19;5274204;28;20036;-78
2022/03/10 10:20:03;;;;;;;10.02;5.13;;;;;;;10.95;56.42;101906.06;5276734;28;20417;-78
2022/03/10 10:22:33;;;;;;;9.80;5.47;;;;;;;11.10;57.51;101904.94;5273726;28;20063;-77
2022/03/10 10:25:07;;;;;;;10.43;5.85;;;;;;;10.99;56.68;101902.53;5258782;28;20427;-77
2022/03/10 10:27:38;;;;;;;12.55;6.00;;;;;;;10.59;58.47;101906.63;5275614;28;20040;-77
2022/03/10 10:30:12;;;;;;;11.65;6.00;;;;;;;11.01;58.95;101896.38;5274205;28;20103;-78
2022/03/10 10:33:02;;;;;;;10.10;5.45;;;;;;;10.38;58.93;101902.56;5270995;28;20519;-77
2022/03/10 10:35:33;;;;;;;12.02;5.70;;;;;;;10.40;59.24;101899.94;5276981;28;20023;-77
2022/03/10 10:38:03;;;;;;;13.93;6.00;;;;;;;10.59;58.53;101899.66;5273221;28;20028;-77
2022/03/10 10:40:34;;;;;;;9.55;5.50;;;;;;;10.39;60.45;101903.44;5264876;28;20374;-77
2022/03/10 10:43:07;;;;;;;10.80;6.32;;;;;;;10.45;59.21;101909.44;5264355;28;20492;-77
2022/03/10 10:45:38;;;;;;;14.50;6.25;;;;;;;10.41;59.72;101899.06;5270711;28;20028;-77
2022/03/10 10:48:11;;;;;;;11.30;5.95;;;;;;;10.48;60.18;101913.78;5270647;28;20019;-77
2022/03/10 10:50:44;;;;;;;15.32;6.22;;;;;;;10.76;58.82;101909.88;5274472;28;20030;-77
2022/03/10 10:53:32;;;;;;;13.43;6.70;;;;;;;10.95;59.08;101903.47;5274440;28;20469;-77
2022/03/10 10:56:04;;;;;;;12.30;6.20;;;;;;;10.79;58.28;101910.69;5270268;28;20106;-77
2022/03/10 10:58:35;;;;;;;13.52;6.18;;;;;;;10.66;59.68;101898.69;5276308;28;20389;-78
2022/03/10 11:01:05;;;;;;;10.85;6.30;;;;;;;11.12;60.00;101908.38;5275396;28;20039;-77
2022/03/10 11:03:37;;;;;;;10.63;6.03;;;;;;;10.75;58.45;101902.91;5271820;28;20063;-77
2022/03/10 11:06:07;;;;;;;13.65;6.30;;;;;;;10.85;58.67;101904.50;5274275;28;20154;-78
2022/03/10 11:08:38;;;;;;;13.73;6.97;;;;;;;10.72;57.34;101901.19;5269907;28;20837;-77
2022/03/10 11:11:10;;;;;;;12.23;6.15;;;;;;;10.66;58.56;101900.44;5271247;28;20502;-77
2022/03/10 11:13:40;;;;;;;11.07;6.32;;;;;;;10.64;57.05;101900.47;5273273;28;20036;-78
2022/03/10 11:16:11;;;;;;;11.00;5.78;;;;;;;10.60;56.31;101910.97;5274754;28;20030;-78
2022/03/10 11:18:47;;;;;;;11.80;6.80;;;;;;;10.78;56.81;101902.84;5274560;28;20047;-77
2022/03/10 11:21:45;;;;;;;11.30;6.53;;;;;;;10.94;58.09;101909.56;5273816;28;20493;-77
2022/03/10 11:24:54;;;;;;;11.73;6.70;;;;;;;10.55;56.30;101915.41;5273973;28;20534;-77
2022/03/10 11:27:29;;;;;;;13.52;6.82;;;;;;;10.68;58.37;101907.34;5248399;28;20044;-77
2022/03/10 11:30:01;;;;;;;17.25;7.57;;;;;;;10.74;58.90;101906.41;5250814;28;20123;-77
2022/03/10 11:32:31;;;;;;;11.50;6.38;;;;;;;10.85;57.72;101905.34;5274238;28;20027;-77
2022/03/10 11:35:03;;;;;;;14.82;6.10;;;;;;;10.94;56.63;101909.56;5271371;28;20084;-77
2022/03/10 11:37:42;;;;;;;11.35;6.07;;;;;;;10.94;57.30;101893.88;5271773;28;20059;-77
2022/03/10 11:40:16;;;;;;;12.70;6.47;;;;;;;10.93;57.74;101897.38;5245115;28;20027;-77
2022/03/10 11:42:59;;;;;;;11.88;6.03;;;;;;;10.90;58.61;101893.09;5270645;28;20028;-77
2022/03/10 11:45:31;;;;;;;12.15;5.65;;;;;;;11.11;57.82;101883.13;5269052;28;20057;-77
2022/03/10 11:48:23;;;;;;;9.43;5.55;;;;;;;11.06;58.48;101889.31;5274317;28;20020;-77